createdAt,value
2018-12-03T00:00:00.880Z,145.25
2018-12-03T00:02:33.966Z,132.75
2018-12-03T00:05:06.431Z,140.75
2018-12-03T00:07:38.757Z,141.50
2018-12-03T00:10:11.551Z,148.50
2018-12-03T00:12:43.619Z,146.00
2018-12-03T00:15:15.681Z,147.00
2018-12-03T00:17:47.954Z,148.75
2018-12-03T00:20:20.226Z,150.25
2018-12-03T00:22:52.421Z,139.75
2018-12-03T00:25:24.476Z,143.25
2018-12-03T00:27:56.623Z,142.00
2018-12-03T00:30:28.827Z,140.75
2018-12-03T00:33:00.987Z,141.25
2018-12-03T00:35:33.505Z,150.75
2018-12-03T00:38:05.625Z,140.50
2018-12-03T00:40:37.724Z,135.00
2018-12-03T00:43:09.801Z,135.75
2018-12-03T00:45:41.828Z,141.25
2018-12-03T00:48:13.726Z,139.75
2018-12-03T00:50:45.394Z,132.50
2018-12-03T00:53:17.453Z,139.25
2018-12-03T00:55:49.646Z,131.25
2018-12-03T00:58:21.918Z,139.25
2018-12-03T01:00:53.550Z,141.00
2018-12-03T01:03:25.714Z,143.25
2018-12-03T01:05:58.392Z,141.75
2018-12-03T01:08:30.391Z,136.50
2018-12-03T01:11:02.997Z,140.50
2018-12-03T01:13:34.800Z,136.75
2018-12-03T01:16:06.845Z,141.75
2018-12-03T01:18:40.271Z,147.25
2018-12-03T01:21:12.047Z,132.50
2018-12-03T01:23:44.190Z,146.25
2018-12-03T01:26:15.817Z,144.25
2018-12-03T01:28:47.659Z,144.75
2018-12-03T01:31:21.693Z,144.50
2018-12-03T01:33:54.004Z,144.25
2018-12-03T01:36:26.228Z,139.25
2018-12-03T01:38:58.134Z,142.25
2018-12-03T01:41:29.873Z,137.75
2018-12-03T01:44:01.939Z,141.50
2018-12-03T01:46:33.718Z,142.50
2018-12-03T01:49:05.664Z,140.75
2018-12-03T01:51:37.769Z,148.00
2018-12-03T01:54:09.830Z,152.50
2018-12-03T01:56:44.332Z,155.50
2018-12-03T01:59:16.300Z,157.75
2018-12-03T02:01:48.205Z,160.50
2018-12-03T02:04:19.957Z,167.75
2018-12-03T02:06:52.144Z,135.50
2018-12-03T02:09:24.235Z,140.25
2018-12-03T02:11:56.033Z,140.25
2018-12-03T02:14:28.243Z,150.25
2018-12-03T02:17:00.091Z,147.75
2018-12-03T02:19:33.068Z,155.00
2018-12-03T02:22:04.889Z,144.75
2018-12-03T02:24:37.136Z,144.50
2018-12-03T02:27:09.434Z,141.75
2018-12-03T02:29:41.521Z,146.25
2018-12-03T02:32:13.210Z,155.50
2018-12-03T02:34:45.347Z,149.00
2018-12-03T02:37:17.567Z,158.75
2018-12-03T02:39:49.332Z,165.00
2018-12-03T02:42:21.157Z,165.75
2018-12-03T02:44:52.895Z,168.25
2018-12-03T02:47:24.348Z,162.00
2018-12-03T02:49:56.055Z,188.50
2018-12-03T02:52:28.096Z,181.25
2018-12-03T02:55:00.182Z,192.00
2018-12-03T02:57:32.030Z,189.75
2018-12-03T03:00:04.106Z,203.00
2018-12-03T03:02:36.041Z,205.80
2018-12-03T03:05:09.950Z,199.20
2018-12-03T03:07:41.926Z,211.40
2018-12-03T03:10:15.769Z,206.20
2018-12-03T03:12:48.042Z,205.40
2018-12-03T03:15:19.965Z,213.80
2018-12-03T03:17:52.750Z,210.40
2018-12-03T03:20:25.326Z,209.20
2018-12-03T03:22:57.109Z,207.50
2018-12-03T03:25:29.348Z,185.75
2018-12-03T03:28:01.504Z,176.75
2018-12-03T03:30:33.419Z,166.50
2018-12-03T03:33:05.472Z,165.50
2018-12-03T03:35:37.688Z,157.25
2018-12-03T03:38:10.904Z,149.25
2018-12-03T03:40:42.787Z,147.00
2018-12-03T03:43:14.531Z,150.00
2018-12-03T03:45:46.588Z,138.50
2018-12-03T03:48:18.717Z,145.00
2018-12-03T03:50:50.602Z,147.25
2018-12-03T03:53:22.401Z,141.25
2018-12-03T03:55:54.240Z,148.50
2018-12-03T03:58:26.224Z,158.75
2018-12-03T04:00:57.985Z,159.50
2018-12-03T04:03:29.602Z,167.75
2018-12-03T04:06:01.676Z,166.25
2018-12-03T04:08:33.961Z,172.00
2018-12-03T04:11:05.723Z,172.00
2018-12-03T04:13:37.628Z,168.75
2018-12-03T04:16:09.674Z,176.00
2018-12-03T04:18:41.849Z,178.50
2018-12-03T04:21:14.137Z,172.75
2018-12-03T04:23:46.379Z,181.75
2018-12-03T04:26:18.144Z,187.50
2018-12-03T04:28:50.029Z,202.25
2018-12-03T04:31:21.960Z,190.25
2018-12-03T04:33:53.840Z,183.25
2018-12-03T04:36:25.904Z,170.75
2018-12-03T04:38:58.215Z,156.25
2018-12-03T04:41:30.608Z,152.00
2018-12-03T04:44:02.608Z,166.75
2018-12-03T04:46:34.264Z,159.25
2018-12-03T04:49:06.106Z,135.75
2018-12-03T04:51:37.999Z,152.50
2018-12-03T04:54:10.073Z,147.50
2018-12-03T04:56:41.912Z,135.50
2018-12-03T04:59:13.688Z,137.00
2018-12-03T05:01:45.528Z,138.00
2018-12-03T05:04:16.979Z,138.00
2018-12-03T05:06:49.629Z,113.50
2018-12-03T05:09:22.127Z,106.25
2018-12-03T05:11:54.169Z,107.00
2018-12-03T05:14:25.582Z,113.75
2018-12-03T05:16:57.412Z,104.75
2018-12-03T05:19:29.302Z,103.00
2018-12-03T05:22:00.820Z,105.25
2018-12-03T05:24:32.693Z,88.60
2018-12-03T05:27:04.427Z,95.00
2018-12-03T05:29:36.017Z,89.20
2018-12-03T05:32:09.125Z,87.00
2018-12-03T05:34:40.813Z,79.60
2018-12-03T05:37:12.698Z,88.80
2018-12-03T05:39:45.275Z,87.00
2018-12-03T05:42:17.044Z,84.20
2018-12-03T05:44:48.865Z,83.00
2018-12-03T05:47:20.558Z,84.40
2018-12-03T05:49:52.149Z,81.60
2018-12-03T05:52:23.644Z,81.00
2018-12-03T05:54:55.145Z,85.80
2018-12-03T05:57:26.701Z,84.80
2018-12-03T05:59:58.400Z,77.20
2018-12-03T06:02:29.986Z,87.60
2018-12-03T06:05:01.715Z,84.40
2018-12-03T06:07:33.326Z,75.20
2018-12-03T06:10:05.988Z,85.00
2018-12-03T06:12:37.362Z,84.20
2018-12-03T06:15:11.565Z,82.00
2018-12-03T06:17:43.138Z,81.40
2018-12-03T06:20:17.709Z,82.00
2018-12-03T06:22:49.881Z,85.80
2018-12-03T06:25:22.719Z,83.20
2018-12-03T06:27:54.283Z,78.00
2018-12-03T06:30:26.968Z,81.20
2018-12-03T06:32:58.345Z,83.40
2018-12-03T06:35:29.902Z,74.40
2018-12-03T06:38:01.276Z,67.80
2018-12-03T06:40:34.548Z,64.00
2018-12-03T06:43:06.051Z,63.20
2018-12-03T06:45:37.806Z,67.60
2018-12-03T06:48:17.220Z,59.80
2018-12-03T06:50:48.915Z,58.40
2018-12-03T06:53:20.438Z,51.60
2018-12-03T06:55:52.035Z,55.40
2018-12-03T06:58:23.507Z,53.00
2018-12-03T07:00:54.979Z,53.00
2018-12-03T07:03:26.522Z,54.80
2018-12-03T07:05:58.119Z,56.20
2018-12-03T07:08:30.636Z,59.00
2018-12-03T07:11:02.907Z,56.60
2018-12-03T07:13:34.345Z,58.80
2018-12-03T07:16:05.924Z,50.20
2018-12-03T07:18:38.283Z,58.40
2018-12-03T07:21:09.873Z,54.20
2018-12-03T07:23:43.053Z,57.00
2018-12-03T07:26:15.739Z,52.80
2018-12-03T07:28:47.207Z,50.40
2018-12-03T07:31:19.139Z,52.20
2018-12-03T07:33:50.757Z,45.80
2018-12-03T07:36:22.383Z,48.40
2018-12-03T07:38:53.870Z,50.20
2018-12-03T07:41:27.008Z,42.00
2018-12-03T07:43:58.547Z,49.20
2018-12-03T07:46:30.351Z,51.40
2018-12-03T07:49:01.873Z,52.00
2018-12-03T07:51:33.712Z,52.00
2018-12-03T07:54:05.302Z,49.60
2018-12-03T07:56:36.931Z,50.40
2018-12-03T07:59:08.751Z,53.20
2018-12-03T08:01:40.397Z,52.20
2018-12-03T08:04:12.059Z,53.00
2018-12-03T08:06:43.758Z,48.00
2018-12-03T08:09:15.371Z,48.40
2018-12-03T08:11:47.947Z,45.80
2018-12-03T08:14:20.613Z,45.20
2018-12-03T08:16:52.678Z,46.40
2018-12-03T08:19:28.320Z,53.20
2018-12-03T08:22:03.350Z,49.80
2018-12-03T08:24:35.098Z,47.00
2018-12-03T08:27:07.057Z,57.00
2018-12-03T08:29:39.722Z,45.40
2018-12-03T08:32:11.295Z,46.60
2018-12-03T08:34:42.706Z,49.60
2018-12-03T08:37:15.034Z,46.40
2018-12-03T08:39:46.753Z,46.20
2018-12-03T08:42:19.411Z,47.20
2018-12-03T08:44:51.912Z,43.40
2018-12-03T08:47:23.639Z,46.60
2018-12-03T08:49:55.683Z,48.60
2018-12-03T08:52:27.694Z,45.80
2018-12-03T08:55:00.180Z,65.00
2018-12-03T08:57:32.538Z,85.20
2018-12-03T09:00:04.772Z,107.25
2018-12-03T09:02:36.328Z,77.00
2018-12-03T09:05:09.046Z,44.00
2018-12-03T09:07:42.806Z,47.20
2018-12-03T09:10:17.444Z,42.80
2018-12-03T09:12:49.774Z,42.20
2018-12-03T09:15:21.199Z,47.60
2018-12-03T09:17:52.929Z,42.00
2018-12-03T09:20:25.275Z,43.80
2018-12-03T09:22:57.557Z,39.80
2018-12-03T09:25:29.284Z,41.40
2018-12-03T09:28:01.084Z,46.40
2018-12-03T09:30:33.084Z,44.00
2018-12-03T09:33:04.924Z,42.20
2018-12-03T09:35:37.258Z,42.20
2018-12-03T09:38:11.308Z,46.40
2018-12-03T09:40:42.847Z,52.00
2018-12-03T09:43:15.902Z,43.80
2018-12-03T09:45:47.774Z,42.20
2018-12-03T09:48:19.356Z,41.20
2018-12-03T09:50:50.870Z,46.60
2018-12-03T09:53:22.639Z,43.20
2018-12-03T09:55:54.440Z,44.40
2018-12-03T09:58:26.581Z,41.60
2018-12-03T10:00:58.821Z,41.80
2018-12-03T10:03:35.561Z,47.00
2018-12-03T10:06:15.986Z,45.40
2018-12-03T10:08:48.057Z,43.00
2018-12-03T10:11:19.673Z,48.00
2018-12-03T10:13:52.571Z,48.40
2018-12-03T10:16:24.625Z,49.60
2018-12-03T10:19:00.333Z,50.40
2018-12-03T10:21:28.419Z,48.40
2018-12-03T10:24:00.209Z,53.60
2018-12-03T10:26:33.110Z,50.20
2018-12-03T10:29:05.334Z,47.60
2018-12-03T10:31:37.405Z,42.60
2018-12-03T10:34:12.142Z,49.60
2018-12-03T10:36:51.586Z,49.00
2018-12-03T10:39:28.625Z,51.00
2018-12-03T10:42:09.137Z,46.40
2018-12-03T10:44:41.807Z,45.40
2018-12-03T10:47:13.915Z,46.80
2018-12-03T10:49:45.978Z,43.20
2018-12-03T10:52:22.485Z,46.00
2018-12-03T10:54:54.705Z,43.20
2018-12-03T10:57:26.626Z,41.60
2018-12-03T10:59:59.216Z,48.60
2018-12-03T11:02:38.237Z,41.40
2018-12-03T11:05:15.435Z,48.60
2018-12-03T11:07:47.974Z,48.00
2018-12-03T11:10:20.180Z,46.00
2018-12-03T11:12:53.827Z,46.60
2018-12-03T11:15:26.247Z,44.40
2018-12-03T11:17:57.864Z,48.20
2018-12-03T11:20:30.790Z,45.60
2018-12-03T11:23:03.669Z,51.60
2018-12-03T11:25:37.232Z,47.00
2018-12-03T11:28:11.114Z,52.80
2018-12-03T11:30:51.804Z,48.00
2018-12-03T11:33:28.260Z,49.20
2018-12-03T11:36:01.426Z,45.40
2018-12-03T11:38:39.204Z,49.40
2018-12-03T11:41:11.172Z,47.60
2018-12-03T11:43:42.816Z,44.40
2018-12-03T11:46:17.678Z,46.20
2018-12-03T11:48:49.351Z,46.60
2018-12-03T11:51:21.414Z,48.80
2018-12-03T11:53:55.556Z,41.20
2018-12-03T11:56:27.526Z,45.80
2018-12-03T11:58:59.470Z,44.00
2018-12-03T12:01:31.393Z,46.40
2018-12-03T12:04:04.313Z,45.20
2018-12-03T12:06:36.162Z,44.00
2018-12-03T12:09:12.208Z,44.00
2018-12-03T12:11:44.215Z,44.20
2018-12-03T12:14:21.659Z,46.40
2018-12-03T12:16:53.763Z,46.00
2018-12-03T12:19:25.340Z,44.60
2018-12-03T12:21:57.346Z,44.60
2018-12-03T12:24:30.894Z,44.20
2018-12-03T12:27:02.728Z,46.40
2018-12-03T12:29:39.074Z,46.80
2018-12-03T12:32:10.916Z,42.00
2018-12-03T12:34:43.616Z,44.60
2018-12-03T12:37:15.512Z,45.60
2018-12-03T12:39:47.407Z,46.80
2018-12-03T12:42:19.397Z,50.00
2018-12-03T12:44:51.422Z,47.60
2018-12-03T12:47:24.262Z,54.20
2018-12-03T12:50:00.468Z,52.20
2018-12-03T12:52:32.709Z,52.40
2018-12-03T12:55:04.188Z,57.80
2018-12-03T12:57:35.904Z,49.20
2018-12-03T13:00:13.028Z,58.60
2018-12-03T13:02:46.379Z,51.80
2018-12-03T13:05:18.145Z,62.80
2018-12-03T13:07:49.615Z,61.80
2018-12-03T13:10:21.190Z,56.60
2018-12-03T13:12:54.094Z,61.40
2018-12-03T13:15:26.042Z,64.20
2018-12-03T13:17:58.586Z,66.40
2018-12-03T13:51:22.973Z,115.00
2018-12-03T13:53:55.376Z,139.00
2018-12-03T13:56:27.175Z,131.75
2018-12-03T13:58:59.313Z,137.00
2018-12-03T14:01:31.150Z,134.50
2018-12-03T14:04:08.391Z,146.00
2018-12-03T14:06:45.553Z,143.00
2018-12-03T14:11:36.467Z,140.25
2018-12-03T14:14:23.103Z,133.00
2018-12-03T14:17:02.253Z,129.75
2018-12-03T14:19:35.021Z,131.50
2018-12-03T14:22:14.695Z,134.75
2018-12-03T14:24:47.571Z,129.00
2018-12-03T14:27:19.232Z,147.25
2018-12-03T14:29:51.470Z,152.75
2018-12-03T14:32:23.375Z,155.25
2018-12-03T14:34:56.174Z,166.00
2018-12-03T14:37:28.928Z,179.75
2018-12-03T14:40:00.997Z,170.25
2018-12-03T14:42:33.457Z,189.50
2018-12-03T14:45:05.901Z,185.00
2018-12-03T14:47:38.099Z,185.75
2018-12-03T14:50:12.207Z,179.50
2018-12-03T14:52:44.051Z,180.50
2018-12-03T14:55:16.984Z,182.50
2018-12-03T14:57:49.282Z,194.25
2018-12-03T15:00:21.333Z,187.25
2018-12-03T15:02:53.170Z,208.00
2018-12-03T15:05:25.240Z,205.40
2018-12-03T15:07:56.765Z,212.00
2018-12-03T15:10:28.536Z,222.80
2018-12-03T15:13:00.365Z,223.00
2018-12-03T15:15:32.050Z,230.20
2018-12-03T15:18:03.582Z,232.80
2018-12-03T15:20:35.483Z,246.60
2018-12-03T15:23:07.584Z,267.20
2018-12-03T15:25:39.966Z,250.60
2018-12-03T15:28:15.453Z,279.83
2018-12-03T15:30:46.989Z,228.80
2018-12-03T15:33:18.658Z,238.20
2018-12-03T15:35:50.272Z,232.80
2018-12-03T15:38:21.763Z,229.00
2018-12-03T15:40:53.835Z,233.80
2018-12-03T15:43:26.338Z,240.00
2018-12-03T15:45:58.437Z,241.40
2018-12-03T15:48:30.304Z,248.40
2018-12-03T15:51:02.304Z,241.00
2018-12-03T15:53:34.471Z,237.00
2018-12-03T15:56:07.272Z,220.60
2018-12-03T15:58:38.933Z,227.00
2018-12-03T16:01:14.436Z,237.20
2018-12-03T16:03:44.877Z,235.20
2018-12-03T16:06:17.149Z,232.80
2018-12-03T16:08:48.798Z,234.60
2018-12-03T16:11:20.601Z,235.60
2018-12-03T16:13:52.157Z,235.20
2018-12-03T16:16:24.103Z,231.60
2018-12-03T16:18:56.041Z,241.40
2018-12-03T16:21:27.798Z,237.60
2018-12-03T16:23:59.761Z,224.80
2018-12-03T16:26:31.808Z,243.80
2018-12-03T16:29:03.728Z,233.60
2018-12-03T16:31:36.893Z,231.20
2018-12-03T16:34:08.808Z,241.60
2018-12-03T16:36:40.647Z,234.80
2018-12-03T16:39:12.610Z,237.60
2018-12-03T16:41:44.556Z,243.40
2018-12-03T16:44:16.618Z,228.60
2018-12-03T16:46:49.124Z,249.20
2018-12-03T16:49:21.178Z,239.40
2018-12-03T16:51:53.179Z,249.20
2018-12-03T16:54:24.692Z,253.00
2018-12-03T16:56:57.721Z,246.00
2018-12-03T16:59:29.298Z,261.33
2018-12-03T17:02:01.302Z,255.67
2018-12-03T17:04:33.197Z,265.67
2018-12-03T17:07:05.122Z,258.17
2018-12-03T17:09:36.808Z,256.83
2018-12-03T17:12:11.341Z,264.50
2018-12-03T17:14:43.127Z,263.40
2018-12-03T17:17:16.730Z,267.60
2018-12-03T17:19:54.858Z,248.00
2018-12-03T17:23:03.664Z,255.00
2018-12-03T17:25:35.184Z,265.40
2018-12-03T17:28:07.423Z,260.40
2018-12-03T17:30:39.118Z,254.40
2018-12-03T17:33:10.812Z,258.20
2018-12-03T17:38:43.731Z,238.20
2018-12-03T17:41:15.466Z,237.60
2018-12-03T17:43:48.769Z,255.00
2018-12-03T17:46:21.977Z,252.83
2018-12-03T17:48:54.896Z,266.33
2018-12-03T17:51:27.292Z,263.50
2018-12-03T17:54:03.657Z,265.83
2018-12-03T17:56:36.759Z,260.00
2018-12-03T17:59:09.778Z,263.00
2018-12-03T18:01:42.288Z,260.60
2018-12-03T18:04:15.905Z,257.33
2018-12-03T18:06:49.740Z,259.00
2018-12-03T18:09:22.565Z,254.80
2018-12-03T18:11:54.226Z,260.17
2018-12-03T18:14:27.329Z,260.00
2018-12-03T18:16:59.963Z,255.40
2018-12-03T18:19:33.711Z,259.17
2018-12-03T18:22:07.676Z,255.20
2018-12-03T18:24:43.701Z,267.80
2018-12-03T18:27:15.505Z,255.00
2018-12-03T18:29:49.107Z,253.00
2018-12-03T18:32:30.397Z,258.40
2018-12-03T18:35:11.894Z,261.17
2018-12-03T18:37:45.613Z,260.00
2018-12-03T18:40:20.421Z,259.60
2018-12-03T18:42:54.140Z,262.20
2018-12-03T18:45:26.019Z,256.80
2018-12-03T18:47:57.441Z,251.60
2018-12-03T18:50:33.065Z,258.20
2018-12-03T18:53:10.505Z,254.40
2018-12-03T18:55:42.068Z,244.80
2018-12-03T18:58:15.878Z,245.80
2018-12-03T19:00:48.956Z,239.80
2018-12-03T19:03:20.529Z,247.20
2018-12-03T19:05:53.066Z,235.20
2018-12-03T19:08:24.870Z,238.20
2018-12-03T19:10:57.924Z,242.00
2018-12-03T19:13:30.667Z,249.20
2018-12-03T19:16:02.756Z,243.20
2018-12-03T19:18:34.604Z,242.40
2018-12-03T19:21:06.549Z,243.20
2018-12-03T19:23:38.776Z,235.00
2018-12-03T19:26:10.513Z,237.25
2018-12-03T19:28:42.904Z,237.80
2018-12-03T19:31:15.080Z,238.00
2018-12-03T19:33:49.091Z,242.00
2018-12-03T19:36:25.839Z,239.50
2018-12-03T19:38:57.714Z,227.25
2018-12-03T19:41:29.792Z,230.20
2018-12-03T19:44:02.815Z,228.20
2018-12-03T19:46:35.380Z,234.60
2018-12-03T19:49:08.152Z,235.20
2018-12-03T19:51:41.661Z,235.60
2018-12-03T19:54:14.794Z,230.80
2018-12-03T19:56:47.476Z,231.00
2018-12-03T19:59:19.129Z,232.60
2018-12-03T20:01:51.454Z,218.80
2018-12-03T20:04:28.128Z,221.50
2018-12-03T20:06:59.806Z,233.25
2018-12-03T20:09:31.146Z,230.20
2018-12-03T20:12:02.635Z,231.00
2018-12-03T20:14:34.023Z,222.20
2018-12-03T20:17:09.174Z,229.20
2018-12-03T20:19:43.880Z,226.40
2018-12-03T20:22:18.557Z,233.20
2018-12-03T20:24:50.250Z,233.75
2018-12-03T20:27:32.238Z,230.75
2018-12-03T20:31:14.268Z,240.25
2018-12-03T20:34:24.089Z,239.80
2018-12-03T20:37:06.794Z,241.25
2018-12-03T20:39:50.750Z,239.75
2018-12-03T20:42:26.942Z,241.75
2018-12-03T20:45:16.676Z,237.75
2018-12-03T20:47:51.724Z,242.60
2018-12-03T20:50:35.361Z,237.00
2018-12-03T20:53:10.708Z,237.25
2018-12-03T20:55:45.388Z,247.00
2018-12-03T20:58:17.303Z,233.75
2018-12-03T21:00:49.056Z,235.25
2018-12-03T21:03:22.401Z,229.20
2018-12-03T21:05:55.245Z,224.60
2018-12-03T21:08:32.747Z,209.00
2018-12-03T21:11:05.637Z,202.25
2018-12-03T21:13:39.661Z,198.25
2018-12-03T21:16:11.609Z,199.00
2018-12-03T21:18:43.584Z,192.75
2018-12-03T21:21:15.560Z,198.50
2018-12-03T21:23:48.241Z,192.00
2018-12-03T21:26:19.940Z,193.25
2018-12-03T21:28:51.911Z,181.50
2018-12-03T21:31:24.631Z,186.75
2018-12-03T21:33:56.203Z,188.00
2018-12-03T21:36:29.470Z,185.00
2018-12-03T21:39:02.502Z,177.25
2018-12-03T21:41:36.964Z,181.75
2018-12-03T21:44:08.684Z,185.25
2018-12-03T21:46:40.789Z,190.75
2018-12-03T21:49:12.760Z,190.00
2018-12-03T21:51:45.480Z,184.25
2018-12-03T21:54:22.235Z,182.00
2018-12-03T21:56:54.373Z,181.75
2018-12-03T21:59:27.477Z,181.75
2018-12-03T22:02:01.537Z,186.00
2018-12-03T22:04:34.302Z,177.25
2018-12-03T22:07:17.135Z,183.25
2018-12-03T22:09:50.066Z,173.25
2018-12-03T22:12:25.376Z,182.00
2018-12-03T22:15:01.479Z,187.25
2018-12-03T22:17:36.877Z,180.75
2018-12-03T22:20:15.245Z,174.00
2018-12-03T22:22:47.244Z,180.25
2018-12-03T22:25:20.945Z,178.25
2018-12-03T22:27:58.749Z,186.25
2018-12-03T22:30:30.797Z,177.75
2018-12-03T22:33:07.538Z,182.25
2018-12-03T22:35:39.203Z,188.50
2018-12-03T22:38:11.467Z,187.25
2018-12-03T22:40:45.055Z,189.75
2018-12-03T22:43:19.435Z,178.25
2018-12-03T22:45:57.104Z,183.25
2018-12-03T22:48:33.985Z,181.50
2018-12-03T22:51:08.031Z,182.00
2018-12-03T22:53:40.616Z,179.00
2018-12-03T22:56:12.994Z,179.75
2018-12-03T22:58:46.537Z,178.50
2018-12-03T23:01:25.136Z,185.50
2018-12-03T23:03:57.065Z,176.75
2018-12-03T23:06:29.985Z,178.25
2018-12-03T23:09:02.107Z,191.50
2018-12-03T23:11:36.173Z,178.00
2018-12-03T23:14:08.173Z,182.50
2018-12-03T23:16:40.892Z,181.00
2018-12-03T23:19:14.606Z,182.75
2018-12-03T23:21:47.749Z,174.00
2018-12-03T23:24:20.370Z,180.50
2018-12-03T23:26:53.202Z,178.00
2018-12-03T23:29:24.936Z,177.25
2018-12-03T23:31:56.979Z,181.25
2018-12-03T23:34:28.624Z,179.75
2018-12-03T23:37:04.343Z,166.00
2018-12-03T23:39:37.269Z,171.25
2018-12-03T23:42:09.079Z,163.25
2018-12-03T23:44:40.702Z,149.00
2018-12-03T23:47:13.904Z,168.00
2018-12-03T23:49:47.518Z,165.00
2018-12-03T23:52:19.544Z,158.75
2018-12-03T23:54:51.439Z,154.25
2018-12-03T23:57:23.616Z,158.75
2018-12-03T23:59:58.757Z,162.50
